Time;durP1;ratioP1;P1;durP2;ratioP2;P2;SDS_P1;SDS_P2;PMS_P1;PMS_P2;Temp;Humidity;BMP_temperature;BMP_pressure;BME280_temperature;BME280_humidity;BME280_pressure;Samples;Min_cycle;Max_cycle;Signal;HPM_P1;HPM_P2
2022/01/25 00:29:46;;;;;;;14.38;12.45;;;;;;;5.07;69.46;101846.50;10417912;28;20541;-62
2022/01/25 00:34:48;;;;;;;14.40;12.90;;;;;;;5.07;69.51;101844.72;10414964;28;20127;-63
2022/01/25 00:39:51;;;;;;;13.32;11.85;;;;;;;4.98;69.55;101849.44;10415538;28;20608;-63
2022/01/25 00:44:54;;;;;;;14.48;12.57;;;;;;;4.98;69.46;101847.66;10412901;28;20095;-63
2022/01/25 00:49:56;;;;;;;14.35;12.85;;;;;;;5.03;69.71;101850.16;10428748;28;20234;-63
2022/01/25 00:54:58;;;;;;;13.05;11.75;;;;;;;5.06;69.63;101839.50;10413171;28;20554;-63
2022/01/25 01:00:01;;;;;;;14.68;13.07;;;;;;;5.03;69.49;101834.31;10414919;28;20311;-63
2022/01/25 01:05:03;;;;;;;12.93;11.60;;;;;;;4.93;69.94;101831.97;10412516;28;20084;-63
2022/01/25 01:10:05;;;;;;;13.68;12.38;;;;;;;4.91;69.76;101833.81;10409851;28;20072;-63
2022/01/25 01:15:21;;;;;;;14.25;12.10;;;;;;;4.86;69.91;101827.81;10412668;28;20075;-63
2022/01/25 01:51:38;;;;;;;13.52;12.20;;;;;;;4.74;70.32;101825.56;10419821;28;20103;-62
2022/01/25 01:56:41;;;;;;;15.07;13.40;;;;;;;4.69;70.91;101824.84;10405875;28;20110;-63
2022/01/25 02:01:46;;;;;;;18.75;14.00;;;;;;;4.58;70.78;101806.72;10408348;28;20564;-63
2022/01/25 02:06:48;;;;;;;17.95;14.30;;;;;;;4.65;70.54;101824.06;10425554;28;20045;-63
2022/01/25 02:11:49;;;;;;;16.77;13.95;;;;;;;4.55;71.01;101818.22;10410832;28;20068;-62
2022/01/25 02:27:15;;;;;;;17.65;13.95;;;;;;;4.47;71.35;101829.91;10406842;28;20106;-63
2022/01/25 02:32:16;;;;;;;15.27;13.65;;;;;;;4.41;71.34;101823.03;10409192;28;20053;-63
2022/01/25 02:37:19;;;;;;;16.73;14.10;;;;;;;4.39;71.10;101824.84;10408109;28;20136;-63
2022/01/25 02:42:20;;;;;;;15.73;13.00;;;;;;;4.34;71.25;101825.00;10408415;28;20065;-63
2022/01/25 02:52:42;;;;;;;17.42;14.07;;;;;;;4.19;71.69;101815.75;10408838;28;20106;-63
2022/01/25 02:57:44;;;;;;;18.05;13.93;;;;;;;4.13;72.09;101815.94;10404353;28;20148;-63
2022/01/25 03:02:46;;;;;;;18.02;13.77;;;;;;;4.07;72.09;101810.84;10407615;28;20044;-63
2022/01/25 03:07:47;;;;;;;16.65;14.85;;;;;;;4.02;72.21;101808.34;10405434;28;20037;-63
2022/01/25 03:12:54;;;;;;;16.58;14.85;;;;;;;3.97;72.71;101804.09;10400191;28;20136;-63
2022/01/25 03:18:06;;;;;;;17.35;14.98;;;;;;;3.90;72.49;101803.38;10404711;28;20122;-63
2022/01/25 03:23:18;;;;;;;16.27;13.93;;;;;;;3.80;73.08;101807.19;10399754;28;20070;-63
2022/01/25 03:28:20;;;;;;;15.82;13.82;;;;;;;3.72;73.02;101802.13;10408586;28;20098;-63
2022/01/25 03:33:21;;;;;;;17.23;13.60;;;;;;;3.69;73.06;101803.09;10423618;28;20227;-63
2022/01/25 03:38:22;;;;;;;18.08;14.85;;;;;;;3.64;72.96;101796.22;10456655;28;20044;-64
2022/01/25 03:43:24;;;;;;;15.73;13.25;;;;;;;3.69;72.79;101792.56;10456579;28;20087;-64
2022/01/25 03:53:27;;;;;;;14.73;12.80;;;;;;;3.58;72.76;101786.69;10408991;28;20460;-63
2022/01/25 03:58:29;;;;;;;15.07;13.40;;;;;;;3.61;72.94;101793.66;10409486;28;20072;-63
2022/01/25 04:03:37;;;;;;;16.30;13.40;;;;;;;3.56;72.83;101788.53;10405727;28;20706;-65
2022/01/25 04:08:38;;;;;;;15.82;14.00;;;;;;;3.51;73.25;101796.56;10410561;28;20045;-63
2022/01/25 04:13:40;;;;;;;14.73;13.10;;;;;;;3.50;73.35;101794.81;10415815;28;20064;-63
2022/01/25 04:19:25;;;;;;;15.98;14.32;;;;;;;3.43;73.37;101787.97;10421402;28;20053;-63
2022/01/25 04:29:30;;;;;;;15.65;13.95;;;;;;;3.37;73.62;101788.13;10413838;28;20045;-63
2022/01/25 04:51:19;;;;;;;21.48;15.70;;;;;;;3.24;74.11;101776.19;10416169;28;20072;-63
2022/01/25 05:00:54;;;;;;;18.50;16.20;;;;;;;3.13;74.45;101779.94;10420295;28;20130;-63
2022/01/25 05:06:11;;;;;;;16.83;14.88;;;;;;;3.23;74.29;101784.97;10444165;28;20122;-62
2022/01/25 05:11:28;;;;;;;21.63;16.75;;;;;;;3.14;74.39;101776.44;10411810;28;20110;-63
2022/01/25 05:16:33;;;;;;;18.90;15.77;;;;;;;3.09;74.67;101777.44;10425543;28;20746;-64
2022/01/25 05:26:56;;;;;;;24.65;17.30;;;;;;;3.06;75.09;101791.53;10410985;28;20393;-63
2022/01/25 05:31:58;;;;;;;19.90;15.95;;;;;;;3.04;75.04;101795.13;10450428;22;20160;-62
2022/01/25 05:37:00;;;;;;;17.67;15.85;;;;;;;3.04;75.50;101797.75;10456127;28;20803;-62
2022/01/25 05:42:42;;;;;;;18.98;16.83;;;;;;;3.07;75.40;101797.66;10455343;28;20056;-62
2022/01/25 05:47:41;;;;;;;22.02;17.45;;;;;;;3.05;75.76;101796.81;10465149;28;20044;-62
2022/01/25 05:52:42;;;;;;;19.40;16.70;;;;;;;3.02;75.51;101797.78;10457161;28;20057;-62
2022/01/25 05:57:44;;;;;;;18.92;16.92;;;;;;;2.95;75.43;101791.78;10441951;28;20055;-63
2022/01/25 06:02:46;;;;;;;23.67;17.17;;;;;;;2.98;75.68;101796.13;10421626;28;20215;-63
2022/01/25 06:07:47;;;;;;;20.35;17.17;;;;;;;3.00;75.86;101789.06;10421643;28;20048;-62
2022/01/25 06:12:49;;;;;;;25.65;19.35;;;;;;;2.98;76.02;101802.25;10418266;28;20129;-62
2022/01/25 06:17:51;;;;;;;20.75;17.80;;;;;;;2.98;76.00;101796.97;10424341;28;20174;-62
2022/01/25 06:22:52;;;;;;;21.55;16.60;;;;;;;3.06;76.07;101795.94;10427144;28;21650;-62
2022/01/25 06:27:53;;;;;;;19.13;16.85;;;;;;;3.10;75.96;101789.69;10420608;28;20146;-62
2022/01/25 06:32:55;;;;;;;18.23;16.17;;;;;;;3.17;75.65;101792.13;10434474;28;20141;-62
2022/01/25 06:37:57;;;;;;;18.10;15.10;;;;;;;3.22;75.46;101788.53;10438886;28;20064;-62
2022/01/25 06:42:58;;;;;;;20.08;16.27;;;;;;;3.28;75.02;101781.34;10438309;28;20052;-62
2022/01/25 06:48:00;;;;;;;19.88;15.07;;;;;;;3.31;74.89;101778.63;10442387;28;20212;-58
2022/01/25 06:53:01;;;;;;;16.98;14.75;;;;;;;3.27;74.13;101781.38;10440346;28;20049;-62
2022/01/25 06:58:12;;;;;;;17.77;15.75;;;;;;;3.28;74.38;101778.69;10471288;28;20505;-62
2022/01/25 07:03:14;;;;;;;18.25;15.70;;;;;;;3.31;74.53;101780.41;10471578;28;20535;-62
2022/01/25 07:08:15;;;;;;;17.58;14.73;;;;;;;3.25;74.99;101777.94;10475163;28;20045;-61
2022/01/25 07:13:17;;;;;;;17.55;15.15;;;;;;;3.14;75.04;101786.94;10475092;28;20463;-61
2022/01/25 07:18:18;;;;;;;20.60;15.52;;;;;;;3.19;74.91;101789.47;10466836;28;20076;-61
2022/01/25 07:23:20;;;;;;;17.42;14.85;;;;;;;3.11;74.63;101786.19;10475095;28;20627;-62
2022/01/25 08:29:42;;;;;;;20.20;16.50;;;;;;;3.82;72.55;101822.03;10460041;27;20387;-61
2022/01/25 08:34:51;;;;;;;20.13;15.57;;;;;;;3.87;72.00;101822.81;10468485;28;20512;-61
2022/01/25 08:40:22;;;;;;;15.80;14.20;;;;;;;3.92;71.52;101832.31;10501115;27;20044;-61
2022/01/25 08:45:32;;;;;;;18.52;14.60;;;;;;;3.97;71.35;101823.41;10496805;27;20051;-63
2022/01/25 08:50:35;;;;;;;22.08;17.20;;;;;;;4.03;71.37;101825.84;10507193;27;20044;-65
2022/01/25 08:55:51;;;;;;;15.70;13.63;;;;;;;4.13;71.07;101836.13;10496467;27;20357;-63
2022/01/25 09:01:12;;;;;;;17.95;14.15;;;;;;;4.17;71.07;101828.09;10473134;27;20261;-62
2022/01/25 09:06:14;;;;;;;22.95;15.52;;;;;;;4.20;71.23;101833.31;10508427;27;20414;-65
2022/01/25 09:11:16;;;;;;;18.73;15.18;;;;;;;4.22;71.55;101836.75;10502879;28;20496;-62
2022/01/25 09:16:17;;;;;;;20.08;15.52;;;;;;;4.23;71.53;101833.22;10512518;27;20138;-62
2022/01/25 09:21:19;;;;;;;18.83;15.80;;;;;;;4.33;71.29;101838.22;10504875;28;20048;-63
2022/01/25 09:26:22;;;;;;;22.63;16.50;;;;;;;4.36;71.10;101838.97;10493308;27;20185;-63
2022/01/25 09:31:24;;;;;;;20.33;16.70;;;;;;;4.43;71.14;101840.53;10477969;28;20574;-62
2022/01/25 09:36:27;;;;;;;19.73;16.17;;;;;;;4.36;71.12;101844.25;10480562;28;20208;-64
2022/01/25 09:41:29;;;;;;;23.15;17.23;;;;;;;4.41;70.95;101847.63;10477322;28;20193;-63
2022/01/25 09:46:31;;;;;;;22.00;17.45;;;;;;;4.52;71.19;101839.41;10488280;28;20097;-63
2022/01/25 09:51:34;;;;;;;25.90;17.58;;;;;;;4.51;70.79;101853.50;10485307;28;20060;-63
2022/01/25 09:56:36;;;;;;;26.17;19.08;;;;;;;4.53;70.57;101840.25;10489472;28;20102;-63
2022/01/25 10:01:37;;;;;;;22.05;16.73;;;;;;;4.70;70.12;101839.75;10479228;28;20501;-61
2022/01/25 10:06:39;;;;;;;23.05;17.90;;;;;;;4.83;70.05;101843.72;10479262;28;20054;-61
2022/01/25 10:11:40;;;;;;;20.17;17.40;;;;;;;4.88;69.08;101841.81;10476500;28;20494;-62
2022/01/25 10:16:43;;;;;;;20.92;16.95;;;;;;;4.87;69.83;101850.66;10476520;28;20238;-62
2022/01/25 10:21:50;;;;;;;21.05;18.67;;;;;;;4.91;69.26;101847.00;10479099;28;20055;-63
2022/01/25 10:26:54;;;;;;;19.70;17.05;;;;;;;4.96;69.52;101846.88;10478683;28;20469;-62
2022/01/25 10:32:02;;;;;;;23.30;17.42;;;;;;;5.08;69.45;101853.53;10477821;28;20082;-63
2022/01/25 10:37:09;;;;;;;25.35;18.05;;;;;;;5.34;68.87;101854.47;10476738;28;20051;-62
2022/01/25 10:42:17;;;;;;;20.33;17.58;;;;;;;5.31;68.24;101847.50;10479412;28;20051;-63
2022/01/25 10:47:38;;;;;;;20.23;17.10;;;;;;;5.32;68.61;101842.16;10477680;28;20064;-62
2022/01/25 10:52:39;;;;;;;19.48;17.40;;;;;;;5.30;68.99;101833.44;10473306;28;20046;-65
2022/01/25 10:57:41;;;;;;;21.98;16.95;;;;;;;5.29;68.81;101847.53;10473955;28;20067;-63
2022/01/25 11:03:01;;;;;;;19.65;16.98;;;;;;;5.44;68.66;101834.75;10472918;28;20063;-63
2022/01/25 11:08:15;;;;;;;21.17;16.50;;;;;;;5.50;68.46;101839.81;10474494;28;20059;-63
2022/01/25 11:13:35;;;;;;;20.02;16.67;;;;;;;5.51;68.12;101835.41;10471254;28;20135;-63
2022/01/25 11:18:38;;;;;;;20.65;17.08;;;;;;;5.56;68.21;101833.47;10478649;28;20058;-62
2022/01/25 11:23:42;;;;;;;20.42;17.25;;;;;;;5.49;68.10;101827.53;10477592;28;20052;-62
2022/01/25 11:28:45;;;;;;;20.77;16.73;;;;;;;5.46;68.54;101822.34;10472425;28;20493;-62
2022/01/25 11:33:49;;;;;;;19.40;16.25;;;;;;;5.54;68.05;101824.72;10456714;28;26294;-62
2022/01/25 11:38:53;;;;;;;24.13;16.83;;;;;;;5.52;68.40;101810.72;10472575;28;20033;-63
2022/01/25 11:44:21;;;;;;;20.42;17.20;;;;;;;5.48;68.11;101812.63;10490785;28;20768;-62
2022/01/25 11:49:23;;;;;;;20.45;16.45;;;;;;;5.44;68.24;101805.69;10501194;28;20056;-63
2022/01/25 11:54:25;;;;;;;20.88;16.17;;;;;;;5.51;68.53;101808.97;10507979;28;20052;-64
2022/01/25 11:59:35;;;;;;;19.10;16.25;;;;;;;5.63;67.96;101809.44;10507315;28;20141;-63
2022/01/25 12:04:43;;;;;;;19.38;16.00;;;;;;;5.64;67.69;101811.16;10504751;28;20479;-62
2022/01/25 13:41:53;;;;;;;25.35;20.00;;;;;;;4.98;71.30;101755.28;10635444;27;20412;-55
2022/01/25 13:46:54;;;;;;;24.48;20.02;;;;;;;4.78;71.13;101708.47;10631104;27;20076;-54
2022/01/25 13:51:58;;;;;;;33.03;21.52;;;;;;;5.08;71.09;101742.66;10626869;27;20044;-55
2022/01/25 13:57:13;;;;;;;23.38;18.95;;;;;;;5.09;70.62;101744.41;10628873;27;20547;-55
2022/01/25 14:02:14;;;;;;;28.77;21.20;;;;;;;5.15;70.19;101754.75;10631702;27;20089;-54
2022/01/25 14:07:17;;;;;;;26.65;20.98;;;;;;;5.15;70.20;101760.03;10634259;27;20076;-57
2022/01/25 14:27:52;;;;;;;25.40;20.07;;;;;;;5.24;69.71;101754.44;10627175;27;20047;-54
2022/01/25 14:33:10;;;;;;;26.98;20.50;;;;;;;5.23;69.54;101757.97;10632710;27;20075;-55
2022/01/25 14:38:26;;;;;;;24.77;20.67;;;;;;;5.22;69.79;101748.31;10625442;27;20071;-55
2022/01/25 14:43:30;;;;;;;27.85;20.25;;;;;;;5.06;70.25;101749.75;10598089;27;20093;-55
2022/01/25 14:48:36;;;;;;;26.60;20.20;;;;;;;4.86;70.77;101748.63;10590419;27;20577;-54
2022/01/25 14:53:41;;;;;;;28.33;22.10;;;;;;;4.94;70.93;101751.06;10596582;27;20043;-56
2022/01/25 15:03:52;;;;;;;29.00;20.35;;;;;;;4.76;71.45;101749.88;10571488;27;20123;-54
2022/01/25 15:08:56;;;;;;;26.35;20.08;;;;;;;4.87;71.28;101749.53;10552367;27;20126;-55
2022/01/25 15:14:05;;;;;;;27.08;20.40;;;;;;;4.90;70.98;101749.41;10547689;27;20071;-56
2022/01/25 15:19:07;;;;;;;31.02;21.38;;;;;;;4.92;70.83;101755.50;10556737;27;20040;-55
2022/01/25 15:24:12;;;;;;;28.13;20.73;;;;;;;4.78;70.85;101762.09;10559683;27;20485;-55
2022/01/25 15:29:21;;;;;;;27.88;20.02;;;;;;;4.71;71.30;101763.19;10556720;27;20805;-53
2022/01/25 15:34:24;;;;;;;31.60;22.58;;;;;;;4.73;71.50;101757.91;10559359;27;20141;-57
2022/01/25 15:39:26;;;;;;;30.15;22.73;;;;;;;4.75;71.48;101753.41;10559151;27;20528;-55
2022/01/25 15:44:36;;;;;;;30.05;22.40;;;;;;;4.58;71.49;101735.50;10564484;27;20092;-55
2022/01/25 15:49:39;;;;;;;30.95;23.60;;;;;;;4.67;71.80;101763.34;10554017;27;20039;-54
2022/01/25 15:54:41;;;;;;;32.47;22.58;;;;;;;4.53;71.71;101746.16;10554724;27;20106;-54
2022/01/25 15:59:42;;;;;;;31.13;23.27;;;;;;;4.78;71.54;101772.63;10548125;27;20048;-55
2022/01/25 16:04:44;;;;;;;33.05;22.48;;;;;;;4.77;71.25;101764.78;10545341;27;20130;-55
2022/01/25 16:09:58;;;;;;;32.88;24.25;;;;;;;4.58;71.23;101717.91;10557705;27;20349;-53
2022/01/25 16:14:59;;;;;;;32.65;23.73;;;;;;;4.76;71.31;101763.94;10552519;27;20538;-56
2022/01/25 16:20:00;;;;;;;34.55;23.65;;;;;;;4.73;71.84;101764.03;10549527;27;20456;-55
2022/01/25 16:25:03;;;;;;;32.88;23.55;;;;;;;4.74;71.58;101760.47;10540777;27;20203;-54
2022/01/25 16:30:05;;;;;;;37.13;22.75;;;;;;;4.79;71.89;101762.97;10552355;27;20215;-55
2022/01/25 16:35:07;;;;;;;35.40;24.13;;;;;;;4.76;71.84;101768.34;10531092;27;20527;-54
2022/01/25 16:40:11;;;;;;;33.88;24.52;;;;;;;4.52;72.86;101773.47;10553373;27;20122;-56
2022/01/25 16:45:15;;;;;;;30.08;22.00;;;;;;;4.54;72.82;101774.28;10553485;27;20455;-56
2022/01/25 16:50:24;;;;;;;32.10;22.33;;;;;;;4.62;72.63;101750.28;10535622;27;20150;-54
2022/01/25 16:55:25;;;;;;;33.60;24.00;;;;;;;4.56;72.40;101767.19;10542117;27;20049;-55
2022/01/25 17:00:48;;;;;;;33.80;23.60;;;;;;;4.67;72.37;101776.53;10550799;27;20055;-57
2022/01/25 17:05:49;;;;;;;30.88;21.92;;;;;;;4.66;72.62;101772.19;10546645;27;20050;-56
2022/01/25 17:10:51;;;;;;;33.08;22.23;;;;;;;4.71;72.47;101770.25;10539831;27;20292;-55
2022/01/25 17:15:53;;;;;;;31.80;22.75;;;;;;;4.55;72.82;101760.19;10555598;27;20086;-54
2022/01/25 17:20:55;;;;;;;34.08;22.67;;;;;;;4.68;72.73;101762.44;10555872;27;20047;-55
2022/01/25 17:25:59;;;;;;;32.85;22.92;;;;;;;4.59;72.30;101760.94;10551668;27;20047;-55
2022/01/25 17:31:00;;;;;;;36.00;23.17;;;;;;;4.53;72.87;101762.00;10548298;27;20380;-55
2022/01/25 17:36:02;;;;;;;36.53;24.63;;;;;;;4.47;73.48;101766.59;10544269;27;20072;-57
2022/01/25 17:41:04;;;;;;;31.52;22.83;;;;;;;4.55;73.92;101765.47;10548524;27;20055;-59
2022/01/25 17:46:05;;;;;;;28.20;21.45;;;;;;;4.57;73.55;101755.72;10542844;27;20047;-58
2022/01/25 17:51:07;;;;;;;34.65;23.73;;;;;;;4.62;73.15;101758.22;10547981;27;20032;-55
2022/01/25 17:56:08;;;;;;;34.75;23.98;;;;;;;4.69;72.93;101756.25;10553305;27;20059;-56
2022/01/25 18:01:10;;;;;;;33.03;23.73;;;;;;;4.60;73.05;101767.97;10553358;27;20112;-61
2022/01/25 18:06:11;;;;;;;29.85;20.95;;;;;;;4.55;73.21;101765.47;10547964;27;20047;-57
2022/01/25 18:11:13;;;;;;;34.88;23.05;;;;;;;4.59;73.03;101761.84;10536319;27;20054;-56
2022/01/25 18:16:15;;;;;;;34.55;23.60;;;;;;;4.54;73.26;101766.38;10551736;27;20237;-57
2022/01/25 18:21:18;;;;;;;29.73;21.38;;;;;;;4.52;73.18;101769.94;10550838;27;20139;-56
2022/01/25 18:26:45;;;;;;;32.33;23.45;;;;;;;4.50;73.46;101764.72;10548981;27;20051;-54
2022/01/25 18:31:50;;;;;;;36.17;23.50;;;;;;;4.54;73.39;101758.44;10553371;27;20101;-55
2022/01/25 18:36:52;;;;;;;30.80;21.10;;;;;;;4.55;73.12;101769.88;10548515;27;20047;-54
2022/01/25 18:41:54;;;;;;;30.60;23.23;;;;;;;4.47;73.40;101772.72;10554856;27;20051;-56
2022/01/25 18:46:55;;;;;;;32.25;23.67;;;;;;;4.55;73.39;101765.47;10551121;27;20047;-55
2022/01/25 18:51:57;;;;;;;28.15;19.98;;;;;;;4.36;74.11;101764.31;10546265;27;20051;-57
2022/01/25 18:56:59;;;;;;;33.63;22.88;;;;;;;4.39;74.18;101758.94;10551309;27;20809;-56
2022/01/25 19:02:13;;;;;;;34.22;21.92;;;;;;;4.22;74.14;101757.69;10544516;27;20795;-56
2022/01/25 19:07:15;;;;;;;34.77;21.23;;;;;;;4.38;73.93;101755.44;10547319;27;20062;-56
2022/01/25 19:12:16;;;;;;;30.08;21.52;;;;;;;4.34;74.34;101745.91;10546522;27;20121;-56
2022/01/25 19:17:18;;;;;;;33.78;23.30;;;;;;;4.52;73.75;101749.75;10541452;27;20054;-57
2022/01/25 19:22:23;;;;;;;34.60;22.20;;;;;;;4.57;73.24;101746.97;10546183;27;20069;-55
2022/01/25 19:27:24;;;;;;;35.05;21.75;;;;;;;4.52;73.44;101754.13;10545808;27;20939;-57
2022/01/25 19:32:27;;;;;;;38.17;24.63;;;;;;;4.57;73.65;101753.09;10547456;27;20055;-61
2022/01/25 19:37:29;;;;;;;32.83;22.60;;;;;;;4.50;73.05;101733.09;10547777;27;20376;-56
2022/01/25 19:42:32;;;;;;;34.47;22.33;;;;;;;4.32;73.69;101736.31;10548970;27;20081;-58
2022/01/25 19:47:34;;;;;;;33.83;22.98;;;;;;;4.49;73.01;101757.75;10547517;27;20207;-56
2022/01/25 19:52:42;;;;;;;34.88;22.92;;;;;;;4.38;73.32;101757.19;10536240;27;20129;-54
2022/01/25 19:57:44;;;;;;;37.08;24.98;;;;;;;4.52;73.45;101760.28;10538649;27;20323;-54
2022/01/25 20:02:46;;;;;;;33.30;21.90;;;;;;;4.65;72.74;101759.91;10538903;27;20047;-56
2022/01/25 20:07:47;;;;;;;31.73;20.85;;;;;;;4.60;72.58;101757.41;10539624;27;20054;-55
2022/01/25 20:12:49;;;;;;;34.85;22.35;;;;;;;4.59;72.62;101753.91;10538711;27;20260;-56
2022/01/25 20:18:11;;;;;;;32.28;23.95;;;;;;;4.48;72.46;101758.66;10537620;27;20055;-58
2022/01/25 20:28:26;;;;;;;31.48;22.00;;;;;;;4.48;72.88;101752.53;10537005;27;20046;-56
2022/01/25 20:33:31;;;;;;;32.58;21.20;;;;;;;4.49;72.37;101760.38;10539558;27;20502;-59
2022/01/25 20:38:33;;;;;;;35.20;22.83;;;;;;;4.39;73.42;101758.94;10525115;27;20465;-56
2022/01/25 20:43:35;;;;;;;32.28;22.60;;;;;;;4.41;72.92;101746.56;10544869;27;24368;-56
2022/01/25 20:48:37;;;;;;;33.38;22.45;;;;;;;4.38;73.20;101746.66;10544563;27;20055;-56
2022/01/25 20:53:40;;;;;;;33.05;22.73;;;;;;;4.39;73.43;101753.66;10546941;27;20530;-59
2022/01/25 20:58:41;;;;;;;34.20;23.23;;;;;;;4.37;73.65;101755.50;10544202;27;20065;-56
2022/01/25 21:03:49;;;;;;;33.58;23.05;;;;;;;4.35;73.54;101746.75;10542507;27;20613;-56
2022/01/25 21:08:52;;;;;;;32.90;22.23;;;;;;;4.35;73.62;101752.03;10527871;27;20599;-56
2022/01/25 21:13:54;;;;;;;32.08;21.60;;;;;;;4.51;73.31;101752.44;10538283;27;20063;-56
2022/01/25 21:18:58;;;;;;;33.97;23.05;;;;;;;4.46;73.09;101749.06;10533702;27;20196;-59
2022/01/25 21:24:00;;;;;;;36.80;23.40;;;;;;;4.37;73.42;101756.34;10533802;27;20421;-55
2022/01/25 21:29:03;;;;;;;34.88;22.33;;;;;;;4.39;73.67;101756.31;10529219;27;20465;-59
2022/01/25 21:34:05;;;;;;;33.92;22.70;;;;;;;4.28;73.60;101739.94;10536484;27;20054;-57
2022/01/25 21:39:07;;;;;;;31.63;21.33;;;;;;;4.27;73.91;101751.41;10534751;27;20047;-56
2022/01/25 21:44:09;;;;;;;35.40;22.58;;;;;;;4.18;74.03;101734.94;10541278;27;20052;-55
2022/01/25 21:49:11;;;;;;;33.60;22.70;;;;;;;4.10;74.77;101744.88;10534299;27;20084;-55
2022/01/25 21:54:13;;;;;;;35.97;23.50;;;;;;;3.98;74.86;101724.13;10534505;27;20164;-56
2022/01/25 21:59:14;;;;;;;39.75;24.90;;;;;;;3.97;75.09;101735.59;10540987;27;20062;-54
2022/01/25 22:04:19;;;;;;;35.15;23.60;;;;;;;3.96;75.55;101726.81;10527744;27;20057;-55
2022/01/25 22:09:23;;;;;;;37.75;25.25;;;;;;;3.96;75.55;101726.81;10547342;27;20043;-55
2022/01/25 22:14:34;;;;;;;34.75;23.75;;;;;;;3.99;75.56;101728.50;10544211;27;20541;-56
2022/01/25 22:19:35;;;;;;;37.58;24.75;;;;;;;4.01;75.26;101727.56;10506292;22;20048;-63
2022/01/25 22:24:37;;;;;;;36.60;23.50;;;;;;;3.96;74.84;101723.31;10499601;28;20279;-62
2022/01/25 22:29:39;;;;;;;35.47;21.25;;;;;;;4.04;75.25;101722.19;10502160;28;20117;-63
2022/01/25 22:34:40;;;;;;;35.22;22.05;;;;;;;4.11;74.89;101732.53;10498523;28;20125;-64
2022/01/25 22:39:42;;;;;;;35.90;23.95;;;;;;;4.04;75.33;101729.25;10480343;28;20105;-64
2022/01/25 22:44:50;;;;;;;36.67;23.25;;;;;;;4.03;75.63;101724.88;10504863;28;20197;-63
2022/01/25 22:49:54;;;;;;;36.17;23.65;;;;;;;4.11;75.16;101728.13;10487166;28;20306;-63
2022/01/25 22:54:56;;;;;;;37.40;23.02;;;;;;;4.09;75.24;101724.69;10497924;28;20079;-62
2022/01/25 22:59:57;;;;;;;37.55;23.50;;;;;;;4.00;76.22;101719.69;10498359;28;20039;-62
2022/01/25 23:04:59;;;;;;;40.00;25.42;;;;;;;3.97;76.41;101714.50;10497667;28;20181;-62
2022/01/25 23:10:06;;;;;;;38.88;23.48;;;;;;;3.98;76.91;101724.13;10482459;28;20055;-64
2022/01/25 23:15:10;;;;;;;36.00;22.42;;;;;;;3.78;78.13;101722.94;10492678;27;20505;-63
2022/01/25 23:20:16;;;;;;;44.37;25.93;;;;;;;3.71;78.63;101718.78;10495716;28;20567;-63
2022/01/25 23:25:25;;;;;;;33.78;22.45;;;;;;;3.71;78.75;101731.94;10491525;28;20055;-63
2022/01/25 23:30:46;;;;;;;35.13;22.52;;;;;;;3.97;78.47;101719.78;10482149;28;20048;-63
2022/01/25 23:35:54;;;;;;;34.88;22.00;;;;;;;4.08;78.31;101707.13;10512242;28;20070;-63
2022/01/25 23:41:04;;;;;;;30.60;19.25;;;;;;;4.10;78.24;101722.91;10481254;28;20203;-63
2022/01/25 23:46:08;;;;;;;29.65;20.88;;;;;;;4.08;78.00;101712.41;10480863;28;20052;-64
2022/01/25 23:51:18;;;;;;;33.22;22.77;;;;;;;3.89;78.44;101718.22;10497674;28;20652;-63
